Atlas, Illinois
Current Conditions -  °F | °C
As of 4:55 PM on Thursday 27 Nov 2014 (Local Time) from KPPQ Reporting Station
Clear Clear  
Wind Chill: 17°   Ceiling: Unl
Heat Index: 23°   Visibility: 10mi
Dew Point: 16°   Wind: 5mph
Humidity: 76%   Direction: 330°NNW
Pressure: 30.48"   Gusts: NA
Location:  39.5365°N, 91.0118°W
Report Text: KPPQ 272255Z AUTO 33004KT 10SM CLR M05/M09 A3048 RMK AO2 T10521088 PWINO
Loading
Personal Weather Stations






























Interactive Weather Map New forecast layout! Learn more

10-Day Weather Forecast

Advertisements
Track Severe Weather on mobile